M Y Odessa — ZCYV3 — position and weather

sailwx.info

Track history (hours):
 
Tides and Currents Weather Stations Pressure Air Temp Water Temp Dewpoint Dewpoint Depression Visibility Wind Speed Wind Dir Waves Ship Positions

M Y Odessa

Last reported at 2015-Aug-03 20:33 UTC. Time now 2015-Aug-03 21:20 UTC.
Position N 41°29' W 071°19'.

Length 48 m; draft 2.4 m.

Type: Pleasure craft. MMSI: 319010700.

Date/timePositionNaut miles runAvg speedWind from/ knotsBaromVisibWave heightAir tempDewpointWater temp
2015-Aug-03 20:33N 41°29' W 071°19'0 0.0
2015-Aug-03 19:30N 41°29' W 071°19'0 0.0
2015-Aug-03 18:33N 41°29' W 071°19'0 0.0
2015-Aug-03 17:33N 41°29' W 071°19'0 0.0
2015-Aug-03 16:33N 41°29' W 071°19'0 0.0
2015-Aug-03 15:33N 41°29' W 071°19'0 0.0
2015-Aug-03 13:15N 41°29' W 071°19'0 0.0
2015-Aug-03 12:33N 41°29' W 071°19'0 0.0
2015-Aug-03 09:27N 41°29' W 071°19'0 0.0
2015-Aug-03 08:31N 41°29' W 071°19'0 0.0
2015-Aug-03 06:29N 41°29' W 071°19'0 0.0
2015-Aug-03 05:30N 41°29' W 071°19'0 0.0
2015-Aug-03 04:24N 41°29' W 071°19'0 0.0
2015-Aug-03 03:29N 41°29' W 071°19'0 0.0
2015-Aug-03 02:33N 41°29' W 071°19'0 0.0
2015-Aug-03 01:21N 41°29' W 071°19'0 0.0
2015-Aug-03 00:33N 41°29' W 071°19'0 0.0
2015-Aug-02 23:30N 41°29' W 071°19'0 0.0
2015-Aug-02 22:15N 41°29' W 071°19'0 0.0
2015-Aug-02 21:33N 41°29' W 071°19'0 0.0
2015-Aug-02 20:33N 41°29' W 071°19'0 0.0
2015-Aug-02 19:27N 41°29' W 071°19'0 0.0
2015-Aug-02 16:15N 41°29' W 071°19'0 0.0
2015-Aug-02 15:21N 41°29' W 071°19'1 0.9
2015-Aug-02 14:33N 41°29' W 071°20'6 6.3
2015-Aug-02 13:33N 41°25' W 071°14'1211.8
2015-Aug-02 12:34N 41°22' W 070°59'1111.0
2015-Aug-02 11:34N 41°27' W 070°45'1111.2
2015-Aug-02 10:32N 41°28' W 070°30'5 4.8
2015-Aug-02 09:33N 41°23' W 070°29'0 0.0
2015-Aug-02 08:15N 41°23' W 070°29'0 0.0
2015-Aug-02 07:18N 41°23' W 070°29'0 0.0
2015-Aug-02 06:21N 41°23' W 070°29'0 0.0
2015-Aug-02 05:33N 41°23' W 070°29'0 0.0
2015-Aug-02 04:33N 41°23' W 070°29'0 0.0
2015-Aug-02 03:33N 41°23' W 070°29'0 0.0
2015-Aug-02 02:27N 41°23' W 070°29'0 0.0
2015-Aug-02 01:33N 41°23' W 070°29'0 0.0
2015-Aug-01 23:12N 41°23' W 070°29'0 0.0
2015-Aug-01 22:27N 41°23' W 070°29'1 0.6
2015-Aug-01 21:33N 41°24' W 070°29'2 1.9
2015-Aug-01 20:29N 41°25' W 070°32'0 0.0
2015-Aug-01 19:29N 41°25' W 070°32'0 0.0
2015-Aug-01 18:32N 41°25' W 070°32'0 0.0
2015-Aug-01 17:23N 41°25' W 070°32'0 0.0
2015-Aug-01 16:33N 41°25' W 070°32'2 2.0
2015-Aug-01 15:26N 41°23' W 070°30'0 0.0
2015-Aug-01 13:32N 41°23' W 070°30'0 0.0
2015-Aug-01 12:23N 41°23' W 070°30'0 0.0
2015-Aug-01 11:29N 41°23' W 070°30'0 0.0
2015-Aug-01 10:32N 41°23' W 070°30'0 0.0
2015-Aug-01 09:32N 41°23' W 070°30'0 0.0
2015-Aug-01 08:32N 41°23' W 070°30'0 0.0
2015-Aug-01 07:32N 41°23' W 070°30'0 0.0
2015-Aug-01 06:32N 41°23' W 070°30'0 0.0
2015-Aug-01 05:32N 41°23' W 070°30'0 0.0
2015-Aug-01 04:32N 41°23' W 070°30'0 0.0
2015-Aug-01 03:32N 41°23' W 070°30'0 0.0
2015-Aug-01 01:32N 41°23' W 070°30'0 0.0
2015-Aug-01 00:32N 41°23' W 070°30'0 0.0
2015-Jul-31 23:32N 41°23' W 070°30'19 1.7
2015-Jul-31 12:25N 41°17' W 070°06'0 0.0
2015-Jul-31 11:32N 41°17' W 070°06'0 0.0
2015-Jul-31 10:32N 41°17' W 070°06'0 0.0
2015-Jul-31 09:32N 41°17' W 070°06'0 0.0
2015-Jul-31 00:04N 41°17' W 070°06'0 0.0
2015-Jul-30 23:25N 41°17' W 070°06'0 0.0
2015-Jul-30 21:13N 41°17' W 070°06'0 0.0
2015-Jul-30 20:31N 41°17' W 070°06'0 0.0
2015-Jul-30 04:28N 41°17' W 070°06'0 0.0
2015-Jul-30 03:22N 41°17' W 070°06'0 0.0
2015-Jul-30 02:31N 41°17' W 070°06'0 0.0
2015-Jul-30 01:29N 41°17' W 070°06'0 0.0
2015-Jul-30 00:31N 41°17' W 070°06'0 0.0
2015-Jul-29 21:31N 41°17' W 070°06'0 0.0
2015-Jul-29 20:25N 41°17' W 070°06'0 0.0
2015-Jul-29 14:32N 41°17' W 070°06'0 0.0
2015-Jul-29 13:24N 41°17' W 070°06'0 0.0
2015-Jul-29 12:29N 41°17' W 070°06'0 0.0
2015-Jul-29 11:26N 41°17' W 070°06'0 0.0
2015-Jul-29 10:13N 41°17' W 070°06'0 0.0
2015-Jul-29 07:07N 41°17' W 070°06'0 0.0
2015-Jul-29 06:31N 41°17' W 070°06'4 0.4
2015-Jul-28 20:30N 41°20' W 070°07'1011.0
2015-Jul-28 19:33N 41°27' W 070°18'1111.0
2015-Jul-28 18:33N 41°29' W 070°32'3 0.3
2015-Jul-28 07:06N 41°27' W 070°36'0 0.0
2015-Jul-28 06:09N 41°27' W 070°36'0 0.0
2015-Jul-27 18:33N 41°27' W 070°36'7 6.4
2015-Jul-27 17:25N 41°26' W 070°45'910.6
2015-Jul-27 16:32N 41°22' W 070°57'1111.3
2015-Jul-27 15:33N 41°20' W 071°11'1111.4
2015-Jul-27 14:33N 41°17' W 071°26'1412.0
2015-Jul-27 13:22N 41°12' W 071°44'1012.1
2015-Jul-27 12:33N 41°07' W 071°55'31 0.7
2015-Jul-25 17:22N 41°09' W 072°36'3813.6
2015-Jul-25 14:33N 41°00' W 073°25'2411.6
2015-Jul-25 12:29N 40°48' W 073°52'7 7.5
2015-Jul-25 11:34N 40°43' W 073°59'3 2.4
2015-Jul-25 10:29N 40°45' W 074°01'0 0.0
2015-Jul-25 09:32N 40°45' W 074°01'0 0.0
2015-Jul-25 08:32N 40°45' W 074°01'0 0.0
2015-Jul-25 07:32N 40°45' W 074°01'0 0.0
2015-Jul-25 06:32N 40°45' W 074°01'0 0.0
2015-Jul-25 05:32N 40°45' W 074°01'0 0.0
2015-Jul-25 04:32N 40°45' W 074°01'0 0.0
2015-Jul-25 03:32N 40°45' W 074°01'0 0.0
2015-Jul-25 02:32N 40°45' W 074°01'3 3.6
2015-Jul-25 01:34N 40°41' W 074°02'3 3.4
2015-Jul-25 00:33N 40°45' W 074°01'0 0.0
2015-Jul-24 23:33N 40°45' W 074°01'0 0.0
2015-Jul-24 22:33N 40°45' W 074°01'0 0.0
2015-Jul-24 21:33N 40°45' W 074°01'  
Track history (hours):
 
Tides and Currents Weather Stations Pressure Air Temp Water Temp Dewpoint Dewpoint Depression Visibility Wind Speed Wind Dir Waves Ship Positions

M Y Odessa

Last reported at 2015-Aug-03 20:33 UTC. Time now 2015-Aug-03 21:20 UTC.
Position N 41°29' W 071°19'.

Length 48 m; draft 2.4 m.

Type: Pleasure craft. MMSI: 319010700.

Date/timePositionNaut miles runAvg speedWind from/ knotsBaromVisibWave heightAir tempDewpointWater temp
2015-Aug-03 20:33N 41°29' W 071°19'0 0.0
2015-Aug-03 19:30N 41°29' W 071°19'0 0.0
2015-Aug-03 18:33N 41°29' W 071°19'0 0.0
2015-Aug-03 17:33N 41°29' W 071°19'0 0.0
2015-Aug-03 16:33N 41°29' W 071°19'0 0.0
2015-Aug-03 15:33N 41°29' W 071°19'0 0.0
2015-Aug-03 13:15N 41°29' W 071°19'0 0.0
2015-Aug-03 12:33N 41°29' W 071°19'0 0.0
2015-Aug-03 09:27N 41°29' W 071°19'0 0.0
2015-Aug-03 08:31N 41°29' W 071°19'0 0.0
2015-Aug-03 06:29N 41°29' W 071°19'0 0.0
2015-Aug-03 05:30N 41°29' W 071°19'0 0.0
2015-Aug-03 04:24N 41°29' W 071°19'0 0.0
2015-Aug-03 03:29N 41°29' W 071°19'0 0.0
2015-Aug-03 02:33N 41°29' W 071°19'0 0.0
2015-Aug-03 01:21N 41°29' W 071°19'0 0.0
2015-Aug-03 00:33N 41°29' W 071°19'0 0.0
2015-Aug-02 23:30N 41°29' W 071°19'0 0.0
2015-Aug-02 22:15N 41°29' W 071°19'0 0.0
2015-Aug-02 21:33N 41°29' W 071°19'0 0.0
2015-Aug-02 20:33N 41°29' W 071°19'0 0.0
2015-Aug-02 19:27N 41°29' W 071°19'0 0.0
2015-Aug-02 16:15N 41°29' W 071°19'0 0.0
2015-Aug-02 15:21N 41°29' W 071°19'1 0.9
2015-Aug-02 14:33N 41°29' W 071°20'6 6.3
2015-Aug-02 13:33N 41°25' W 071°14'1211.8
2015-Aug-02 12:34N 41°22' W 070°59'1111.0
2015-Aug-02 11:34N 41°27' W 070°45'1111.2
2015-Aug-02 10:32N 41°28' W 070°30'5 4.8
2015-Aug-02 09:33N 41°23' W 070°29'0 0.0
2015-Aug-02 08:15N 41°23' W 070°29'0 0.0
2015-Aug-02 07:18N 41°23' W 070°29'0 0.0
2015-Aug-02 06:21N 41°23' W 070°29'0 0.0
2015-Aug-02 05:33N 41°23' W 070°29'0 0.0
2015-Aug-02 04:33N 41°23' W 070°29'0 0.0
2015-Aug-02 03:33N 41°23' W 070°29'0 0.0
2015-Aug-02 02:27N 41°23' W 070°29'0 0.0
2015-Aug-02 01:33N 41°23' W 070°29'0 0.0
2015-Aug-01 23:12N 41°23' W 070°29'0 0.0
2015-Aug-01 22:27N 41°23' W 070°29'1 0.6
2015-Aug-01 21:33N 41°24' W 070°29'2 1.9
2015-Aug-01 20:29N 41°25' W 070°32'0 0.0
2015-Aug-01 19:29N 41°25' W 070°32'0 0.0
2015-Aug-01 18:32N 41°25' W 070°32'0 0.0
2015-Aug-01 17:23N 41°25' W 070°32'0 0.0
2015-Aug-01 16:33N 41°25' W 070°32'2 2.0
2015-Aug-01 15:26N 41°23' W 070°30'0 0.0
2015-Aug-01 13:32N 41°23' W 070°30'0 0.0
2015-Aug-01 12:23N 41°23' W 070°30'0 0.0
2015-Aug-01 11:29N 41°23' W 070°30'0 0.0
2015-Aug-01 10:32N 41°23' W 070°30'0 0.0
2015-Aug-01 09:32N 41°23' W 070°30'0 0.0
2015-Aug-01 08:32N 41°23' W 070°30'0 0.0
2015-Aug-01 07:32N 41°23' W 070°30'0 0.0
2015-Aug-01 06:32N 41°23' W 070°30'0 0.0
2015-Aug-01 05:32N 41°23' W 070°30'0 0.0
2015-Aug-01 04:32N 41°23' W 070°30'0 0.0
2015-Aug-01 03:32N 41°23' W 070°30'0 0.0
2015-Aug-01 01:32N 41°23' W 070°30'0 0.0
2015-Aug-01 00:32N 41°23' W 070°30'0 0.0
2015-Jul-31 23:32N 41°23' W 070°30'19 1.7
2015-Jul-31 12:25N 41°17' W 070°06'0 0.0
2015-Jul-31 11:32N 41°17' W 070°06'0 0.0
2015-Jul-31 10:32N 41°17' W 070°06'0 0.0
2015-Jul-31 09:32N 41°17' W 070°06'0 0.0
2015-Jul-31 00:04N 41°17' W 070°06'0 0.0
2015-Jul-30 23:25N 41°17' W 070°06'0 0.0
2015-Jul-30 21:13N 41°17' W 070°06'0 0.0
2015-Jul-30 20:31N 41°17' W 070°06'0 0.0
2015-Jul-30 04:28N 41°17' W 070°06'0 0.0
2015-Jul-30 03:22N 41°17' W 070°06'0 0.0
2015-Jul-30 02:31N 41°17' W 070°06'0 0.0
2015-Jul-30 01:29N 41°17' W 070°06'0 0.0
2015-Jul-30 00:31N 41°17' W 070°06'0 0.0
2015-Jul-29 21:31N 41°17' W 070°06'0 0.0
2015-Jul-29 20:25N 41°17' W 070°06'0 0.0
2015-Jul-29 14:32N 41°17' W 070°06'0 0.0
2015-Jul-29 13:24N 41°17' W 070°06'0 0.0
2015-Jul-29 12:29N 41°17' W 070°06'0 0.0
2015-Jul-29 11:26N 41°17' W 070°06'0 0.0
2015-Jul-29 10:13N 41°17' W 070°06'0 0.0
2015-Jul-29 07:07N 41°17' W 070°06'0 0.0
2015-Jul-29 06:31N 41°17' W 070°06'4 0.4
2015-Jul-28 20:30N 41°20' W 070°07'1011.0
2015-Jul-28 19:33N 41°27' W 070°18'1111.0
2015-Jul-28 18:33N 41°29' W 070°32'3 0.3
2015-Jul-28 07:06N 41°27' W 070°36'0 0.0
2015-Jul-28 06:09N 41°27' W 070°36'0 0.0
2015-Jul-27 18:33N 41°27' W 070°36'7 6.4
2015-Jul-27 17:25N 41°26' W 070°45'910.6
2015-Jul-27 16:32N 41°22' W 070°57'1111.3
2015-Jul-27 15:33N 41°20' W 071°11'1111.4
2015-Jul-27 14:33N 41°17' W 071°26'1412.0
2015-Jul-27 13:22N 41°12' W 071°44'1012.1
2015-Jul-27 12:33N 41°07' W 071°55'31 0.7
2015-Jul-25 17:22N 41°09' W 072°36'3813.6
2015-Jul-25 14:33N 41°00' W 073°25'2411.6
2015-Jul-25 12:29N 40°48' W 073°52'7 7.5
2015-Jul-25 11:34N 40°43' W 073°59'3 2.4
2015-Jul-25 10:29N 40°45' W 074°01'0 0.0
2015-Jul-25 09:32N 40°45' W 074°01'0 0.0
2015-Jul-25 08:32N 40°45' W 074°01'0 0.0
2015-Jul-25 07:32N 40°45' W 074°01'0 0.0
2015-Jul-25 06:32N 40°45' W 074°01'0 0.0
2015-Jul-25 05:32N 40°45' W 074°01'0 0.0
2015-Jul-25 04:32N 40°45' W 074°01'0 0.0
2015-Jul-25 03:32N 40°45' W 074°01'0 0.0
2015-Jul-25 02:32N 40°45' W 074°01'3 3.6
2015-Jul-25 01:34N 40°41' W 074°02'3 3.4
2015-Jul-25 00:33N 40°45' W 074°01'0 0.0
2015-Jul-24 23:33N 40°45' W 074°01'0 0.0
2015-Jul-24 22:33N 40°45' W 074°01'0 0.0
2015-Jul-24 21:33N 40°45' W 074°01'  

Dump ship's entire track history